sensor_id;sensor_type;location;lat;lon;timestamp;pressure;altitude;pressure_sealevel;temperature;humidity
74561;BME280;62979;55.720;37.606;2023-04-01T00:01:23;98329.56;;;4.42;68.30
74561;BME280;62979;55.720;37.606;2023-04-01T00:03:52;98324.38;;;4.42;67.93
74561;BME280;62979;55.720;37.606;2023-04-01T00:06:19;98321.97;;;4.35;68.03
74561;BME280;62979;55.720;37.606;2023-04-01T00:08:46;98323.56;;;4.39;68.23
74561;BME280;62979;55.720;37.606;2023-04-01T00:11:14;98324.44;;;4.39;68.26
74561;BME280;62979;55.720;37.606;2023-04-01T00:13:41;98322.06;;;4.28;67.91
74561;BME280;62979;55.720;37.606;2023-04-01T00:16:08;98327.25;;;4.28;68.34
74561;BME280;62979;55.720;37.606;2023-04-01T00:18:36;98324.66;;;4.28;68.22
74561;BME280;62979;55.720;37.606;2023-04-01T00:21:04;98323.78;;;4.29;68.55
74561;BME280;62979;55.720;37.606;2023-04-01T00:23:32;98313.38;;;4.33;68.23
74561;BME280;62979;55.720;37.606;2023-04-01T00:25:59;98324.53;;;4.35;68.23
74561;BME280;62979;55.720;37.606;2023-04-01T00:28:26;98312.47;;;4.34;68.16
74561;BME280;62979;55.720;37.606;2023-04-01T00:30:53;98313.34;;;4.34;68.41
74561;BME280;62979;55.720;37.606;2023-04-01T00:33:20;98307.72;;;4.15;68.17
74561;BME280;62979;55.720;37.606;2023-04-01T00:35:47;98315.13;;;4.31;68.08
74561;BME280;62979;55.720;37.606;2023-04-01T00:38:15;98311.66;;;4.32;68.27
74561;BME280;62979;55.720;37.606;2023-04-01T00:40:46;98310.84;;;4.29;68.27
74561;BME280;62979;55.720;37.606;2023-04-01T00:43:16;98308.19;;;4.33;68.21
74561;BME280;62979;55.720;37.606;2023-04-01T00:45:46;98300.53;;;4.26;68.22
74561;BME280;62979;55.720;37.606;2023-04-01T00:48:17;98309.03;;;4.35;68.13
74561;BME280;62979;55.720;37.606;2023-04-01T00:50:49;98309.13;;;4.30;68.06
74561;BME280;62979;55.720;37.606;2023-04-01T00:53:22;98307.47;;;4.26;68.15
74561;BME280;62979;55.720;37.606;2023-04-01T00:55:54;98304.81;;;4.29;68.42
74561;BME280;62979;55.720;37.606;2023-04-01T00:58:29;98301.38;;;4.28;68.57
74561;BME280;62979;55.720;37.606;2023-04-01T01:01:00;98307.28;;;4.35;68.73
74561;BME280;62979;55.720;37.606;2023-04-01T01:03:28;98307.28;;;4.34;67.81
74561;BME280;62979;55.720;37.606;2023-04-01T01:06:07;98308.22;;;4.31;68.05
74561;BME280;62979;55.720;37.606;2023-04-01T01:08:57;98308.13;;;4.36;68.04
74561;BME280;62979;55.720;37.606;2023-04-01T01:11:37;98307.25;;;4.37;68.35
74561;BME280;62979;55.720;37.606;2023-04-01T01:14:15;98310.59;;;4.40;68.47
74561;BME280;62979;55.720;37.606;2023-04-01T01:16:54;98314.13;;;4.38;68.42
74561;BME280;62979;55.720;37.606;2023-04-01T01:23:16;98315.03;;;4.37;68.50
74561;BME280;62979;55.720;37.606;2023-04-01T01:26:11;98280.03;;;4.19;68.23
74561;BME280;62979;55.720;37.606;2023-04-01T01:29:16;98317.44;;;4.44;68.10
74561;BME280;62979;55.720;37.606;2023-04-01T01:32:23;98314.94;;;4.40;68.40
74561;BME280;62979;55.720;37.606;2023-04-01T01:35:23;98319.28;;;4.39;68.13
74561;BME280;62979;55.720;37.606;2023-04-01T01:37:56;98309.72;;;4.41;68.06
74561;BME280;62979;55.720;37.606;2023-04-01T01:40:28;98304.59;;;4.40;68.25
74561;BME280;62979;55.720;37.606;2023-04-01T01:43:02;98301.09;;;4.41;68.32
74561;BME280;62979;55.720;37.606;2023-04-01T01:45:34;98322.63;;;4.43;68.19
74561;BME280;62979;55.720;37.606;2023-04-01T01:48:06;98307.19;;;4.40;68.64
74561;BME280;62979;55.720;37.606;2023-04-01T01:50:39;98313.00;;;4.49;68.76
74561;BME280;62979;55.720;37.606;2023-04-01T01:53:09;98312.19;;;4.46;68.62
74561;BME280;62979;55.720;37.606;2023-04-01T01:55:39;98317.34;;;4.49;68.63
74561;BME280;62979;55.720;37.606;2023-04-01T01:58:11;98316.41;;;4.52;68.46
74561;BME280;62979;55.720;37.606;2023-04-01T02:00:43;98317.25;;;4.54;68.71
74561;BME280;62979;55.720;37.606;2023-04-01T02:03:13;98319.81;;;4.54;68.71
74561;BME280;62979;55.720;37.606;2023-04-01T02:05:43;98308.81;;;4.44;68.57
74561;BME280;62979;55.720;37.606;2023-04-01T02:08:14;98313.84;;;4.50;68.26
74561;BME280;62979;55.720;37.606;2023-04-01T02:10:51;98311.34;;;4.47;68.86
74561;BME280;62979;55.720;37.606;2023-04-01T02:13:27;98315.53;;;4.51;68.68
74561;BME280;62979;55.720;37.606;2023-04-01T02:16:00;98322.38;;;4.55;68.78
74561;BME280;62979;55.720;37.606;2023-04-01T02:18:35;98318.91;;;4.56;68.43
74561;BME280;62979;55.720;37.606;2023-04-01T02:21:07;98320.69;;;4.53;68.48
74561;BME280;62979;55.720;37.606;2023-04-01T02:23:36;98320.56;;;4.59;68.39
74561;BME280;62979;55.720;37.606;2023-04-01T02:26:05;98314.69;;;4.50;68.26
74561;BME280;62979;55.720;37.606;2023-04-01T02:28:36;98312.91;;;4.54;68.26
74561;BME280;62979;55.720;37.606;2023-04-01T02:31:06;98324.88;;;4.58;68.20
74561;BME280;62979;55.720;37.606;2023-04-01T02:33:36;98327.47;;;4.58;68.18
74561;BME280;62979;55.720;37.606;2023-04-01T02:36:10;98336.94;;;4.59;68.23
74561;BME280;62979;55.720;37.606;2023-04-01T02:38:38;98333.47;;;4.60;68.30
74561;BME280;62979;55.720;37.606;2023-04-01T02:41:06;98334.28;;;4.62;68.44
74561;BME280;62979;55.720;37.606;2023-04-01T02:43:33;98330.00;;;4.61;68.43
74561;BME280;62979;55.720;37.606;2023-04-01T02:46:00;98335.09;;;4.64;68.27
74561;BME280;62979;55.720;37.606;2023-04-01T02:48:28;98336.78;;;4.65;68.30
74561;BME280;62979;55.720;37.606;2023-04-01T02:50:55;98330.06;;;4.58;68.15
74561;BME280;62979;55.720;37.606;2023-04-01T02:53:24;98340.28;;;4.64;68.26
74561;BME280;62979;55.720;37.606;2023-04-01T02:55:50;98330.81;;;4.63;68.22
74561;BME280;62979;55.720;37.606;2023-04-01T02:58:17;98337.69;;;4.64;68.12
74561;BME280;62979;55.720;37.606;2023-04-01T03:00:45;98336.88;;;4.62;68.04
74561;BME280;62979;55.720;37.606;2023-04-01T03:03:12;98324.81;;;4.61;68.14
74561;BME280;62979;55.720;37.606;2023-04-01T03:05:39;98330.06;;;4.58;68.14
74561;BME280;62979;55.720;37.606;2023-04-01T03:08:06;98331.69;;;4.62;68.59
74561;BME280;62979;55.720;37.606;2023-04-01T03:10:35;98333.47;;;4.60;68.27
74561;BME280;62979;55.720;37.606;2023-04-01T03:13:02;98342.03;;;4.64;68.51
74561;BME280;62979;55.720;37.606;2023-04-01T03:15:29;98338.69;;;4.59;68.63
74561;BME280;62979;55.720;37.606;2023-04-01T03:17:56;98342.13;;;4.59;68.29
74561;BME280;62979;55.720;37.606;2023-04-01T03:20:23;98355.03;;;4.61;68.36
74561;BME280;62979;55.720;37.606;2023-04-01T03:22:50;98354.22;;;4.59;68.49
74561;BME280;62979;55.720;37.606;2023-04-01T03:25:17;98356.81;;;4.59;68.54
74561;BME280;62979;55.720;37.606;2023-04-01T03:27:46;98349.97;;;4.56;68.57
74561;BME280;62979;55.720;37.606;2023-04-01T03:30:13;98356.91;;;4.54;68.43
74561;BME280;62979;55.720;37.606;2023-04-01T03:32:40;98356.94;;;4.53;68.36
74561;BME280;62979;55.720;37.606;2023-04-01T03:35:07;98363.75;;;4.57;68.54
74561;BME280;62979;55.720;37.606;2023-04-01T03:37:35;98362.91;;;4.56;68.48
74561;BME280;62979;55.720;37.606;2023-04-01T03:40:03;98358.66;;;4.54;68.27
74561;BME280;62979;55.720;37.606;2023-04-01T03:42:31;98368.13;;;4.53;68.61
74561;BME280;62979;55.720;37.606;2023-04-01T03:44:59;98364.69;;;4.53;68.82
74561;BME280;62979;55.720;37.606;2023-04-01T03:47:26;98367.19;;;4.57;68.77
74561;BME280;62979;55.720;37.606;2023-04-01T03:49:53;98378.63;;;4.47;68.35
74561;BME280;62979;55.720;37.606;2023-04-01T03:52:20;98383.00;;;4.45;68.69
74561;BME280;62979;55.720;37.606;2023-04-01T03:54:47;98373.47;;;4.47;69.07
74561;BME280;62979;55.720;37.606;2023-04-01T03:57:14;98392.25;;;4.55;69.18
74561;BME280;62979;55.720;37.606;2023-04-01T03:59:41;98388.00;;;4.53;68.82
74561;BME280;62979;55.720;37.606;2023-04-01T04:02:09;98393.19;;;4.53;69.05
74561;BME280;62979;55.720;37.606;2023-04-01T04:04:36;98398.28;;;4.56;68.98
74561;BME280;62979;55.720;37.606;2023-04-01T04:07:03;98388.91;;;4.52;68.56
74561;BME280;62979;55.720;37.606;2023-04-01T04:09:30;98389.00;;;4.47;68.77
74561;BME280;62979;55.720;37.606;2023-04-01T04:11:58;98406.09;;;4.54;69.00
74561;BME280;62979;55.720;37.606;2023-04-01T04:14:26;98403.50;;;4.54;68.97
74561;BME280;62979;55.720;37.606;2023-04-01T04:16:53;98400.94;;;4.54;68.77
74561;BME280;62979;55.720;37.606;2023-04-01T04:19:21;98408.63;;;4.56;68.74
74561;BME280;62979;55.720;37.606;2023-04-01T04:21:48;98404.25;;;4.59;69.24
74561;BME280;62979;55.720;37.606;2023-04-01T04:24:15;98403.50;;;4.54;68.25
74561;BME280;62979;55.720;37.606;2023-04-01T04:26:42;98390.81;;;4.42;69.08
74561;BME280;62979;55.720;37.606;2023-04-01T04:29:08;98408.69;;;4.54;69.67
74561;BME280;62979;55.720;37.606;2023-04-01T04:31:35;98410.31;;;4.58;69.50
74561;BME280;62979;55.720;37.606;2023-04-01T04:34:02;98413.81;;;4.57;69.29
74561;BME280;62979;55.720;37.606;2023-04-01T04:36:33;98407.69;;;4.61;69.53
74561;BME280;62979;55.720;37.606;2023-04-01T04:38:59;98417.03;;;4.68;69.65
74561;BME280;62979;55.720;37.606;2023-04-01T04:41:28;98425.47;;;4.77;69.67
74561;BME280;62979;55.720;37.606;2023-04-01T04:43:56;98410.94;;;4.71;69.14
74561;BME280;62979;55.720;37.606;2023-04-01T04:46:24;98408.38;;;4.68;68.82
74561;BME280;62979;55.720;37.606;2023-04-01T04:48:52;98418.69;;;4.71;69.07
74561;BME280;62979;55.720;37.606;2023-04-01T04:51:20;98399.91;;;4.61;69.47
74561;BME280;62979;55.720;37.606;2023-04-01T04:53:49;98422.06;;;4.75;68.79
74561;BME280;62979;55.720;37.606;2023-04-01T04:56:17;98429.72;;;4.79;69.13
74561;BME280;62979;55.720;37.606;2023-04-01T04:58:45;98432.25;;;4.82;68.73
74561;BME280;62979;55.720;37.606;2023-04-01T05:01:14;98433.91;;;4.86;68.54
74561;BME280;62979;55.720;37.606;2023-04-01T05:03:42;98442.44;;;4.90;68.53
74561;BME280;62979;55.720;37.606;2023-04-01T05:06:12;98446.03;;;4.84;69.30
74561;BME280;62979;55.720;37.606;2023-04-01T05:08:41;98443.25;;;4.93;68.59
74561;BME280;62979;55.720;37.606;2023-04-01T05:11:13;98449.28;;;4.92;68.31
74561;BME280;62979;55.720;37.606;2023-04-01T05:13:42;98444.09;;;4.92;68.53
74561;BME280;62979;55.720;37.606;2023-04-01T05:16:10;98451.78;;;4.97;67.87
74561;BME280;62979;55.720;37.606;2023-04-01T05:18:38;98441.56;;;4.91;68.42
74561;BME280;62979;55.720;37.606;2023-04-01T05:21:07;98445.72;;;4.98;68.56
74561;BME280;62979;55.720;37.606;2023-04-01T05:23:36;98450.75;;;5.04;68.01
74561;BME280;62979;55.720;37.606;2023-04-01T05:26:04;98457.41;;;5.16;67.82
74561;BME280;62979;55.720;37.606;2023-04-01T05:28:33;98457.50;;;5.11;67.62
74561;BME280;62979;55.720;37.606;2023-04-01T05:31:00;98453.97;;;5.15;67.64
74561;BME280;62979;55.720;37.606;2023-04-01T05:33:29;98460.94;;;5.13;67.86
74561;BME280;62979;55.720;37.606;2023-04-01T05:35:56;98453.06;;;5.17;67.80
74561;BME280;62979;55.720;37.606;2023-04-01T05:38:31;98449.47;;;5.24;68.20
74561;BME280;62979;55.720;37.606;2023-04-01T05:40:58;98458.97;;;5.25;67.61
74561;BME280;62979;55.720;37.606;2023-04-01T05:43:25;98453.66;;;5.29;68.03
74561;BME280;62979;55.720;37.606;2023-04-01T05:45:54;98462.19;;;5.34;67.94
74561;BME280;62979;55.720;37.606;2023-04-01T05:48:21;98467.41;;;5.33;67.93
74561;BME280;62979;55.720;37.606;2023-04-01T05:50:48;98463.97;;;5.31;66.70
74561;BME280;62979;55.720;37.606;2023-04-01T05:53:15;98463.88;;;5.35;66.92
74561;BME280;62979;55.720;37.606;2023-04-01T05:55:42;98459.53;;;5.38;67.12
74561;BME280;62979;55.720;37.606;2023-04-01T05:58:09;98466.44;;;5.37;66.28
74561;BME280;62979;55.720;37.606;2023-04-01T06:00:36;98473.13;;;5.47;66.95
74561;BME280;62979;55.720;37.606;2023-04-01T06:03:04;98470.34;;;5.55;66.63
74561;BME280;62979;55.720;37.606;2023-04-01T06:05:38;98477.06;;;5.64;66.41
74561;BME280;62979;55.720;37.606;2023-04-01T06:08:11;98478.47;;;5.75;66.54
74561;BME280;62979;55.720;37.606;2023-04-01T06:10:49;98480.91;;;5.83;66.62
74561;BME280;62979;55.720;37.606;2023-04-01T06:13:36;98482.56;;;5.86;66.00
74561;BME280;62979;55.720;37.606;2023-04-01T06:16:20;98476.38;;;5.91;65.91
74561;BME280;62979;55.720;37.606;2023-04-01T06:19:02;98471.94;;;5.96;65.91
74561;BME280;62979;55.720;37.606;2023-04-01T06:22:05;98475.19;;;6.05;66.32
74561;BME280;62979;55.720;37.606;2023-04-01T06:28:03;98484.50;;;6.12;64.80
74561;BME280;62979;55.720;37.606;2023-04-01T06:30:50;98497.38;;;6.16;64.52
74561;BME280;62979;55.720;37.606;2023-04-01T06:33:37;98496.66;;;6.11;64.31
74561;BME280;62979;55.720;37.606;2023-04-01T06:36:46;98503.69;;;6.08;64.13
74561;BME280;62979;55.720;37.606;2023-04-01T06:39:42;98500.28;;;6.04;64.16
74561;BME280;62979;55.720;37.606;2023-04-01T06:42:26;98494.09;;;6.10;64.89
74561;BME280;62979;55.720;37.606;2023-04-01T06:48:11;98499.31;;;6.10;63.98
74561;BME280;62979;55.720;37.606;2023-04-01T06:50:55;98499.63;;;5.97;64.26
74561;BME280;62979;55.720;37.606;2023-04-01T06:53:33;98498.25;;;5.81;64.21
74561;BME280;62979;55.720;37.606;2023-04-01T06:56:10;98500.56;;;5.92;64.49
74561;BME280;62979;55.720;37.606;2023-04-01T06:58:44;98516.78;;;6.02;64.88
74561;BME280;62979;55.720;37.606;2023-04-01T07:01:20;98514.69;;;6.16;64.84
74561;BME280;62979;55.720;37.606;2023-04-01T07:03:54;98518.63;;;6.31;63.44
74561;BME280;62979;55.720;37.606;2023-04-01T07:06:28;98501.13;;;6.39;63.59
74561;BME280;62979;55.720;37.606;2023-04-01T07:09:02;98502.47;;;6.54;63.51
74561;BME280;62979;55.720;37.606;2023-04-01T07:11:34;98504.72;;;6.66;63.53
74561;BME280;62979;55.720;37.606;2023-04-01T07:14:06;98518.13;;;6.82;62.56
74561;BME280;62979;55.720;37.606;2023-04-01T07:16:47;98488.81;;;6.77;62.45
74561;BME280;62979;55.720;37.606;2023-04-01T07:19:21;98509.88;;;6.97;61.46
74561;BME280;62979;55.720;37.606;2023-04-01T07:21:56;98512.28;;;7.05;62.08
74561;BME280;62979;55.720;37.606;2023-04-01T07:24:32;98518.00;;;7.16;61.54
74561;BME280;62979;55.720;37.606;2023-04-01T07:27:01;98522.13;;;7.23;60.96
74561;BME280;62979;55.720;37.606;2023-04-01T07:29:28;98515.53;;;7.41;60.91
74561;BME280;62979;55.720;37.606;2023-04-01T07:32:11;98516.16;;;7.48;61.09
74561;BME280;62979;55.720;37.606;2023-04-01T07:34:53;98524.81;;;7.48;60.69
74561;BME280;62979;55.720;37.606;2023-04-01T07:37:31;98521.50;;;7.71;59.90
74561;BME280;62979;55.720;37.606;2023-04-01T07:40:14;98525.81;;;7.72;59.48
74561;BME280;62979;55.720;37.606;2023-04-01T07:43:05;98525.41;;;7.85;59.12
74561;BME280;62979;55.720;37.606;2023-04-01T07:45:56;98528.53;;;7.96;59.29
74561;BME280;62979;55.720;37.606;2023-04-01T07:48:33;98532.59;;;8.05;59.10
74561;BME280;62979;55.720;37.606;2023-04-01T07:51:11;98534.69;;;7.93;57.79
74561;BME280;62979;55.720;37.606;2023-04-01T07:53:49;98536.69;;;7.85;58.09
74561;BME280;62979;55.720;37.606;2023-04-01T07:56:30;98537.00;;;8.03;58.01
74561;BME280;62979;55.720;37.606;2023-04-01T07:59:09;98537.28;;;8.20;57.30
74561;BME280;62979;55.720;37.606;2023-04-01T08:01:50;98542.72;;;8.39;57.37
74561;BME280;62979;55.720;37.606;2023-04-01T08:04:45;98547.63;;;8.48;56.70
74561;BME280;62979;55.720;37.606;2023-04-01T08:07:24;98533.06;;;8.43;55.37
74561;BME280;62979;55.720;37.606;2023-04-01T08:10:03;98530.88;;;8.55;55.19
74561;BME280;62979;55.720;37.606;2023-04-01T08:12:48;98536.72;;;8.37;53.22
74561;BME280;62979;55.720;37.606;2023-04-01T08:15:29;98553.81;;;8.46;53.89
74561;BME280;62979;55.720;37.606;2023-04-01T08:18:13;98544.00;;;8.54;53.01
74561;BME280;62979;55.720;37.606;2023-04-01T08:20:52;98543.72;;;8.62;53.35
74561;BME280;62979;55.720;37.606;2023-04-01T08:23:26;98549.38;;;8.73;53.51
74561;BME280;62979;55.720;37.606;2023-04-01T08:26:00;98552.72;;;8.78;52.37
74561;BME280;62979;55.720;37.606;2023-04-01T08:28:37;98553.28;;;8.86;52.41
74561;BME280;62979;55.720;37.606;2023-04-01T08:31:11;98551.13;;;8.97;53.81
74561;BME280;62979;55.720;37.606;2023-04-01T08:33:43;98545.47;;;9.10;53.26
74561;BME280;62979;55.720;37.606;2023-04-01T08:36:16;98547.63;;;8.98;52.17
74561;BME280;62979;55.720;37.606;2023-04-01T08:38:52;98549.59;;;9.39;53.40
74561;BME280;62979;55.720;37.606;2023-04-01T08:41:57;98549.97;;;9.96;52.31
74561;BME280;62979;55.720;37.606;2023-04-01T08:45:09;98566.34;;;10.21;50.90
74561;BME280;62979;55.720;37.606;2023-04-01T08:48:27;98560.34;;;10.19;52.08
74561;BME280;62979;55.720;37.606;2023-04-01T08:51:26;98563.25;;;10.34;50.76
74561;BME280;62979;55.720;37.606;2023-04-01T08:54:23;98568.06;;;10.22;50.56
74561;BME280;62979;55.720;37.606;2023-04-01T08:57:06;98548.47;;;9.90;50.24
74561;BME280;62979;55.720;37.606;2023-04-01T08:59:57;98565.28;;;9.83;51.07
74561;BME280;62979;55.720;37.606;2023-04-01T09:03:03;98566.31;;;9.57;47.75
74561;BME280;62979;55.720;37.606;2023-04-01T09:06:07;98564.50;;;9.59;49.11
74561;BME280;62979;55.720;37.606;2023-04-01T09:08:57;98563.41;;;9.86;48.41
74561;BME280;62979;55.720;37.606;2023-04-01T09:11:50;98560.72;;;9.66;48.54
74561;BME280;62979;55.720;37.606;2023-04-01T09:14:53;98578.94;;;9.68;50.67
74561;BME280;62979;55.720;37.606;2023-04-01T09:17:51;98582.09;;;9.98;49.53
74561;BME280;62979;55.720;37.606;2023-04-01T09:20:47;98575.81;;;10.02;48.10
74561;BME280;62979;55.720;37.606;2023-04-01T09:23:49;98574.81;;;10.28;48.10
74561;BME280;62979;55.720;37.606;2023-04-01T09:26:49;98576.47;;;10.51;46.85
74561;BME280;62979;55.720;37.606;2023-04-01T09:33:10;98573.91;;;10.70;45.54
74561;BME280;62979;55.720;37.606;2023-04-01T09:36:03;98572.69;;;10.79;45.63
74561;BME280;62979;55.720;37.606;2023-04-01T09:38:39;98582.81;;;10.86;44.60
74561;BME280;62979;55.720;37.606;2023-04-01T09:41:28;98601.16;;;10.85;44.67
74561;BME280;62979;55.720;37.606;2023-04-01T09:44:06;98563.91;;;11.00;44.65
74561;BME280;62979;55.720;37.606;2023-04-01T09:46:54;98590.38;;;11.32;43.46
74561;BME280;62979;55.720;37.606;2023-04-01T09:49:48;98590.38;;;11.51;42.59
74561;BME280;62979;55.720;37.606;2023-04-01T09:52:37;98605.25;;;11.50;42.54
74561;BME280;62979;55.720;37.606;2023-04-01T09:55:21;98597.16;;;11.36;41.64
74561;BME280;62979;55.720;37.606;2023-04-01T09:58:42;98609.91;;;11.63;41.34
74561;BME280;62979;55.720;37.606;2023-04-01T10:02:07;98606.72;;;11.37;41.86
74561;BME280;62979;55.720;37.606;2023-04-01T10:05:27;98619.28;;;11.29;42.62
74561;BME280;62979;55.720;37.606;2023-04-01T10:08:43;98615.47;;;12.12;40.70
74561;BME280;62979;55.720;37.606;2023-04-01T10:11:59;98627.28;;;12.74;38.31
74561;BME280;62979;55.720;37.606;2023-04-01T10:15:09;98618.94;;;13.01;37.03
74561;BME280;62979;55.720;37.606;2023-04-01T10:24:53;98636.75;;;12.94;40.36
74561;BME280;62979;55.720;37.606;2023-04-01T10:28:05;98616.94;;;12.89;40.31
74561;BME280;62979;55.720;37.606;2023-04-01T10:31:27;98619.81;;;13.84;39.54
74561;BME280;62979;55.720;37.606;2023-04-01T10:34:44;98600.19;;;14.67;36.75
74561;BME280;62979;55.720;37.606;2023-04-01T10:38:02;98639.13;;;15.64;34.85
74561;BME280;62979;55.720;37.606;2023-04-01T10:41:27;98622.91;;;15.84;34.40
74561;BME280;62979;55.720;37.606;2023-04-01T10:51:07;98640.47;;;16.67;32.85
74561;BME280;62979;55.720;37.606;2023-04-01T10:53:49;98634.75;;;17.26;32.61
74561;BME280;62979;55.720;37.606;2023-04-01T10:56:51;98639.88;;;18.28;31.03
74561;BME280;62979;55.720;37.606;2023-04-01T11:06:58;98641.25;;;19.85;27.80
74561;BME280;62979;55.720;37.606;2023-04-01T11:13:51;98644.13;;;19.82;26.90
74561;BME280;62979;55.720;37.606;2023-04-01T11:17:10;98634.38;;;19.71;27.52
74561;BME280;62979;55.720;37.606;2023-04-01T11:23:37;98642.75;;;20.65;27.11
74561;BME280;62979;55.720;37.606;2023-04-01T11:26:26;98638.97;;;21.21;26.06
74561;BME280;62979;55.720;37.606;2023-04-01T11:29:15;98636.13;;;20.16;26.55
74561;BME280;62979;55.720;37.606;2023-04-01T11:32:14;98623.03;;;19.24;27.82
74561;BME280;62979;55.720;37.606;2023-04-01T11:35:04;98648.06;;;18.85;28.57
74561;BME280;62979;55.720;37.606;2023-04-01T11:37:54;98648.09;;;18.12;29.25
74561;BME280;62979;55.720;37.606;2023-04-01T11:40:30;98650.81;;;17.23;29.63
74561;BME280;62979;55.720;37.606;2023-04-01T11:43:10;98645.63;;;17.08;30.61
74561;BME280;62979;55.720;37.606;2023-04-01T11:45:50;98661.22;;;16.46;31.28
74561;BME280;62979;55.720;37.606;2023-04-01T11:48:37;98650.78;;;16.30;31.58
74561;BME280;62979;55.720;37.606;2023-04-01T11:51:42;98656.94;;;16.16;32.36
74561;BME280;62979;55.720;37.606;2023-04-01T11:54:28;98651.03;;;16.13;32.06
74561;BME280;62979;55.720;37.606;2023-04-01T11:57:15;98651.09;;;15.84;33.02
74561;BME280;62979;55.720;37.606;2023-04-01T12:06:30;98650.19;;;15.26;33.46
74561;BME280;62979;55.720;37.606;2023-04-01T12:09:12;98664.41;;;15.24;33.61
74561;BME280;62979;55.720;37.606;2023-04-01T12:11:54;98667.69;;;15.13;34.35
74561;BME280;62979;55.720;37.606;2023-04-01T12:14:35;98669.72;;;14.93;34.34
74561;BME280;62979;55.720;37.606;2023-04-01T12:17:21;98666.78;;;14.84;34.53
74561;BME280;62979;55.720;37.606;2023-04-01T12:20:01;98661.59;;;14.82;34.29
74561;BME280;62979;55.720;37.606;2023-04-01T12:23:14;98658.78;;;14.55;33.99
74561;BME280;62979;55.720;37.606;2023-04-01T12:26:09;98673.47;;;14.27;34.65
74561;BME280;62979;55.720;37.606;2023-04-01T12:29:02;98665.44;;;14.15;34.87
74561;BME280;62979;55.720;37.606;2023-04-01T12:31:52;98661.78;;;14.17;34.26
74561;BME280;62979;55.720;37.606;2023-04-01T12:34:49;98665.00;;;13.90;34.57
74561;BME280;62979;55.720;37.606;2023-04-01T12:37:32;98668.78;;;13.85;34.81
74561;BME280;62979;55.720;37.606;2023-04-01T12:43:56;98677.56;;;13.52;34.58
74561;BME280;62979;55.720;37.606;2023-04-01T12:46:46;98672.91;;;13.57;34.69
74561;BME280;62979;55.720;37.606;2023-04-01T12:49:50;98666.97;;;13.54;34.19
74561;BME280;62979;55.720;37.606;2023-04-01T12:52:41;98673.25;;;13.51;34.26
74561;BME280;62979;55.720;37.606;2023-04-01T12:55:41;98680.47;;;13.63;34.26
74561;BME280;62979;55.720;37.606;2023-04-01T12:58:39;98688.25;;;13.65;34.15
74561;BME280;62979;55.720;37.606;2023-04-01T13:01:48;98693.41;;;14.00;34.30
74561;BME280;62979;55.720;37.606;2023-04-01T13:10:50;98691.47;;;13.54;34.97
74561;BME280;62979;55.720;37.606;2023-04-01T13:13:44;98693.78;;;13.43;36.16
74561;BME280;62979;55.720;37.606;2023-04-01T13:16:25;98703.09;;;13.33;36.45
74561;BME280;62979;55.720;37.606;2023-04-01T13:18:58;98697.44;;;13.05;37.00
74561;BME280;62979;55.720;37.606;2023-04-01T13:21:47;98699.91;;;12.74;37.95
74561;BME280;62979;55.720;37.606;2023-04-01T13:24:35;98703.81;;;12.65;38.88
74561;BME280;62979;55.720;37.606;2023-04-01T13:27:16;98704.72;;;12.47;39.36
74561;BME280;62979;55.720;37.606;2023-04-01T13:29:59;98700.91;;;12.35;39.66
74561;BME280;62979;55.720;37.606;2023-04-01T13:32:47;98709.47;;;12.38;39.87
74561;BME280;62979;55.720;37.606;2023-04-01T13:35:29;98709.00;;;12.11;40.73
74561;BME280;62979;55.720;37.606;2023-04-01T13:38:38;98721.19;;;11.93;41.53
74561;BME280;62979;55.720;37.606;2023-04-01T13:41:24;98725.91;;;11.85;41.79
74561;BME280;62979;55.720;37.606;2023-04-01T13:44:09;98732.72;;;11.69;42.41
74561;BME280;62979;55.720;37.606;2023-04-01T13:50:32;98741.59;;;11.46;42.78
74561;BME280;62979;55.720;37.606;2023-04-01T13:53:23;98738.84;;;11.49;42.94
74561;BME280;62979;55.720;37.606;2023-04-01T13:56:19;98737.28;;;11.45;43.02
74561;BME280;62979;55.720;37.606;2023-04-01T13:59:19;98736.81;;;11.35;42.68
74561;BME280;62979;55.720;37.606;2023-04-01T14:02:20;98753.84;;;11.25;42.73
74561;BME280;62979;55.720;37.606;2023-04-01T14:05:37;98751.09;;;11.28;43.00
74561;BME280;62979;55.720;37.606;2023-04-01T14:08:20;98746.22;;;11.19;42.88
74561;BME280;62979;55.720;37.606;2023-04-01T14:11:10;98768.66;;;11.04;42.85
74561;BME280;62979;55.720;37.606;2023-04-01T14:13:52;98748.72;;;11.01;43.50
74561;BME280;62979;55.720;37.606;2023-04-01T14:16:51;98743.63;;;10.98;43.21
74561;BME280;62979;55.720;37.606;2023-04-01T14:19:49;98758.66;;;10.93;43.55
74561;BME280;62979;55.720;37.606;2023-04-01T14:22:34;98752.00;;;10.84;44.13
74561;BME280;62979;55.720;37.606;2023-04-01T14:25:26;98761.75;;;10.81;45.04
74561;BME280;62979;55.720;37.606;2023-04-01T14:28:24;98758.34;;;10.79;45.27
74561;BME280;62979;55.720;37.606;2023-04-01T14:31:17;98769.63;;;10.81;45.79
74561;BME280;62979;55.720;37.606;2023-04-01T14:34:00;98762.31;;;10.67;46.37
74561;BME280;62979;55.720;37.606;2023-04-01T14:36:46;98766.91;;;10.60;46.89
74561;BME280;62979;55.720;37.606;2023-04-01T14:39:33;98770.09;;;10.68;47.22
74561;BME280;62979;55.720;37.606;2023-04-01T14:42:23;98770.63;;;10.77;47.28
74561;BME280;62979;55.720;37.606;2023-04-01T14:48:32;98791.22;;;10.40;48.80
74561;BME280;62979;55.720;37.606;2023-04-01T14:51:09;98779.75;;;10.44;49.36
74561;BME280;62979;55.720;37.606;2023-04-01T14:53:44;98754.56;;;10.18;49.48
74561;BME280;62979;55.720;37.606;2023-04-01T14:56:37;98793.44;;;10.27;49.96
74561;BME280;62979;55.720;37.606;2023-04-01T14:59:10;98785.63;;;10.26;50.31
74561;BME280;62979;55.720;37.606;2023-04-01T15:01:46;98787.63;;;10.43;50.61
74561;BME280;62979;55.720;37.606;2023-04-01T15:07:51;98765.81;;;10.20;51.44
74561;BME280;62979;55.720;37.606;2023-04-01T15:14:01;98812.56;;;10.30;52.69
74561;BME280;62979;55.720;37.606;2023-04-01T15:16:52;98810.75;;;10.06;54.02
74561;BME280;62979;55.720;37.606;2023-04-01T15:19:35;98810.53;;;10.13;53.81